sensor_id;sensor_type;location;lat;lon;timestamp;pressure;altitude;pressure_sealevel;temperature;humidity
15308;BME280;7755;52.208;6.964;2023-01-28T00:00:47;102528.28;;;3.67;94.26
15308;BME280;7755;52.208;6.964;2023-01-28T00:04:50;102521.91;;;3.68;94.08
15308;BME280;7755;52.208;6.964;2023-01-28T00:08:55;102518.38;;;3.67;94.35
15308;BME280;7755;52.208;6.964;2023-01-28T00:12:58;102532.13;;;3.64;94.67
15308;BME280;7755;52.208;6.964;2023-01-28T00:17:03;102537.50;;;3.64;95.29
15308;BME280;7755;52.208;6.964;2023-01-28T00:21:09;102535.13;;;3.61;95.59
15308;BME280;7755;52.208;6.964;2023-01-28T00:25:14;102532.03;;;3.56;95.54
15308;BME280;7755;52.208;6.964;2023-01-28T00:29:17;102531.94;;;3.48;95.47
15308;BME280;7755;52.208;6.964;2023-01-28T00:33:20;102535.22;;;3.42;94.81
15308;BME280;7755;52.208;6.964;2023-01-28T00:37:23;102545.56;;;3.37;93.59
15308;BME280;7755;52.208;6.964;2023-01-28T00:41:28;102553.25;;;3.22;89.03
15308;BME280;7755;52.208;6.964;2023-01-28T00:45:32;102554.69;;;3.16;90.26
15308;BME280;7755;52.208;6.964;2023-01-28T00:49:34;102558.38;;;3.15;90.18
15308;BME280;7755;52.208;6.964;2023-01-28T00:53:37;102545.25;;;3.03;89.25
15308;BME280;7755;52.208;6.964;2023-01-28T00:57:42;102556.41;;;3.08;89.62
15308;BME280;7755;52.208;6.964;2023-01-28T01:01:48;102555.00;;;3.04;89.36
15308;BME280;7755;52.208;6.964;2023-01-28T01:05:51;102572.97;;;3.03;89.30
15308;BME280;7755;52.208;6.964;2023-01-28T01:09:53;102565.78;;;2.94;88.89
15308;BME280;7755;52.208;6.964;2023-01-28T01:13:59;102555.56;;;2.97;88.97
15308;BME280;7755;52.208;6.964;2023-01-28T01:18:06;102557.41;;;2.97;89.76
15308;BME280;7755;52.208;6.964;2023-01-28T01:22:08;102569.63;;;2.91;89.40
15308;BME280;7755;52.208;6.964;2023-01-28T01:26:11;102563.81;;;2.86;89.19
15308;BME280;7755;52.208;6.964;2023-01-28T01:30:16;102560.13;;;2.87;88.76
15308;BME280;7755;52.208;6.964;2023-01-28T01:34:19;102566.78;;;2.93;89.32
15308;BME280;7755;52.208;6.964;2023-01-28T01:38:22;102562.56;;;2.81;89.00
15308;BME280;7755;52.208;6.964;2023-01-28T01:42:25;102570.19;;;2.76;89.22
15308;BME280;7755;52.208;6.964;2023-01-28T01:46:34;102579.66;;;2.70;88.79
15308;BME280;7755;52.208;6.964;2023-01-28T01:50:41;102576.41;;;2.66;88.12
15308;BME280;7755;52.208;6.964;2023-01-28T01:54:46;102576.69;;;2.63;87.56
15308;BME280;7755;52.208;6.964;2023-01-28T01:58:52;102571.47;;;2.71;87.64
15308;BME280;7755;52.208;6.964;2023-01-28T02:02:58;102572.88;;;2.76;87.67
15308;BME280;7755;52.208;6.964;2023-01-28T02:07:02;102565.97;;;2.73;87.31
15308;BME280;7755;52.208;6.964;2023-01-28T02:11:06;102563.00;;;2.66;87.19
15308;BME280;7755;52.208;6.964;2023-01-28T02:15:12;102566.09;;;2.62;87.86
15308;BME280;7755;52.208;6.964;2023-01-28T02:19:18;102567.38;;;2.67;87.94
15308;BME280;7755;52.208;6.964;2023-01-28T02:23:37;102573.31;;;2.71;88.06
15308;BME280;7755;52.208;6.964;2023-01-28T02:28:01;102580.22;;;2.73;88.22
15308;BME280;7755;52.208;6.964;2023-01-28T02:32:15;102579.53;;;2.71;87.41
15308;BME280;7755;52.208;6.964;2023-01-28T02:36:24;102581.22;;;2.72;88.00
15308;BME280;7755;52.208;6.964;2023-01-28T02:40:32;102594.38;;;2.66;87.25
15308;BME280;7755;52.208;6.964;2023-01-28T02:44:57;102591.81;;;2.55;87.16
15308;BME280;7755;52.208;6.964;2023-01-28T02:49:01;102590.13;;;2.54;87.79
15308;BME280;7755;52.208;6.964;2023-01-28T02:53:17;102599.88;;;2.55;87.89
15308;BME280;7755;52.208;6.964;2023-01-28T02:57:47;102590.56;;;2.59;88.12
15308;BME280;7755;52.208;6.964;2023-01-28T03:01:59;102582.50;;;2.59;88.28
15308;BME280;7755;52.208;6.964;2023-01-28T03:06:07;102579.41;;;2.54;87.88
15308;BME280;7755;52.208;6.964;2023-01-28T03:10:13;102578.81;;;2.50;87.70
15308;BME280;7755;52.208;6.964;2023-01-28T03:14:18;102577.97;;;2.50;87.91
15308;BME280;7755;52.208;6.964;2023-01-28T03:18:44;102580.66;;;2.50;87.50
15308;BME280;7755;52.208;6.964;2023-01-28T03:23:09;102575.56;;;2.37;86.65
15308;BME280;7755;52.208;6.964;2023-01-28T03:27:34;102579.66;;;2.41;87.11
15308;BME280;7755;52.208;6.964;2023-01-28T03:31:59;102585.34;;;2.38;87.01
15308;BME280;7755;52.208;6.964;2023-01-28T03:36:22;102571.47;;;2.42;87.19
15308;BME280;7755;52.208;6.964;2023-01-28T03:40:55;102585.44;;;2.36;86.47
15308;BME280;7755;52.208;6.964;2023-01-28T03:44:59;102584.06;;;2.32;86.20
15308;BME280;7755;52.208;6.964;2023-01-28T03:49:04;102590.13;;;2.25;86.36
15308;BME280;7755;52.208;6.964;2023-01-28T03:53:09;102584.03;;;2.23;86.00
15308;BME280;7755;52.208;6.964;2023-01-28T03:57:23;102596.03;;;2.18;85.08
15308;BME280;7755;52.208;6.964;2023-01-28T04:01:26;102605.75;;;2.10;85.20
15308;BME280;7755;52.208;6.964;2023-01-28T04:05:30;102606.03;;;2.07;85.01
15308;BME280;7755;52.208;6.964;2023-01-28T04:09:35;102614.50;;;2.02;84.47
15308;BME280;7755;52.208;6.964;2023-01-28T04:13:59;102607.56;;;2.00;84.35
15308;BME280;7755;52.208;6.964;2023-01-28T04:18:12;102600.78;;;1.96;84.71
15308;BME280;7755;52.208;6.964;2023-01-28T04:22:16;102609.13;;;1.92;84.81
15308;BME280;7755;52.208;6.964;2023-01-28T04:26:20;102610.56;;;1.97;84.82
15308;BME280;7755;52.208;6.964;2023-01-28T04:30:23;102605.75;;;2.00;85.05
15308;BME280;7755;52.208;6.964;2023-01-28T04:34:55;102605.88;;;1.99;84.89
15308;BME280;7755;52.208;6.964;2023-01-28T04:39:13;102604.28;;;1.86;84.08
15308;BME280;7755;52.208;6.964;2023-01-28T04:43:28;102608.97;;;1.84;84.73
15308;BME280;7755;52.208;6.964;2023-01-28T04:47:51;102605.59;;;1.92;85.24
15308;BME280;7755;52.208;6.964;2023-01-28T04:52:12;102607.97;;;1.95;84.73
15308;BME280;7755;52.208;6.964;2023-01-28T04:56:33;102610.66;;;1.95;84.93
15308;BME280;7755;52.208;6.964;2023-01-28T05:00:40;102618.41;;;1.88;84.20
15308;BME280;7755;52.208;6.964;2023-01-28T05:04:43;102621.91;;;1.79;83.99
15308;BME280;7755;52.208;6.964;2023-01-28T05:08:59;102618.78;;;1.74;84.44
15308;BME280;7755;52.208;6.964;2023-01-28T05:13:03;102625.72;;;1.77;85.15
15308;BME280;7755;52.208;6.964;2023-01-28T05:17:08;102622.06;;;1.78;85.15
15308;BME280;7755;52.208;6.964;2023-01-28T05:21:12;102619.09;;;1.81;85.41
15308;BME280;7755;52.208;6.964;2023-01-28T05:25:17;102621.09;;;1.88;85.65
15308;BME280;7755;52.208;6.964;2023-01-28T05:29:20;102609.13;;;1.92;85.55
15308;BME280;7755;52.208;6.964;2023-01-28T05:33:24;102604.59;;;1.83;84.83
15308;BME280;7755;52.208;6.964;2023-01-28T05:37:27;102615.25;;;1.74;84.34
15308;BME280;7755;52.208;6.964;2023-01-28T05:41:31;102609.56;;;1.57;84.09
15308;BME280;7755;52.208;6.964;2023-01-28T05:45:36;102600.13;;;1.63;85.08
15308;BME280;7755;52.208;6.964;2023-01-28T05:49:45;102588.00;;;1.69;85.19
15308;BME280;7755;52.208;6.964;2023-01-28T05:54:10;102594.41;;;1.77;85.49
15308;BME280;7755;52.208;6.964;2023-01-28T05:58:13;102599.31;;;1.82;85.67
15308;BME280;7755;52.208;6.964;2023-01-28T06:02:16;102600.91;;;1.84;86.03
15308;BME280;7755;52.208;6.964;2023-01-28T06:06:21;102582.00;;;1.86;86.34
15308;BME280;7755;52.208;6.964;2023-01-28T06:10:24;102580.84;;;1.79;85.53
15308;BME280;7755;52.208;6.964;2023-01-28T06:14:28;102587.59;;;1.73;84.83
15308;BME280;7755;52.208;6.964;2023-01-28T06:18:50;102580.78;;;1.69;84.60
15308;BME280;7755;52.208;6.964;2023-01-28T06:22:54;102591.53;;;1.69;85.18
15308;BME280;7755;52.208;6.964;2023-01-28T06:26:57;102590.69;;;1.69;85.23
15308;BME280;7755;52.208;6.964;2023-01-28T06:31:00;102600.25;;;1.61;85.45
15308;BME280;7755;52.208;6.964;2023-01-28T06:35:04;102601.81;;;1.64;85.95
15308;BME280;7755;52.208;6.964;2023-01-28T06:39:08;102600.38;;;1.50;84.86
15308;BME280;7755;52.208;6.964;2023-01-28T06:43:11;102605.84;;;1.49;84.80
15308;BME280;7755;52.208;6.964;2023-01-28T06:47:14;102617.22;;;1.41;85.22
15308;BME280;7755;52.208;6.964;2023-01-28T06:51:17;102616.66;;;1.38;85.53
15308;BME280;7755;52.208;6.964;2023-01-28T06:55:21;102621.22;;;1.47;85.81
15308;BME280;7755;52.208;6.964;2023-01-28T06:59:24;102612.63;;;1.53;86.14
15308;BME280;7755;52.208;6.964;2023-01-28T07:03:27;102616.44;;;1.50;86.20
15308;BME280;7755;52.208;6.964;2023-01-28T07:07:30;102604.59;;;1.53;86.47
15308;BME280;7755;52.208;6.964;2023-01-28T07:11:34;102607.31;;;1.62;86.49
15308;BME280;7755;52.208;6.964;2023-01-28T07:15:37;102617.38;;;1.70;86.27
15308;BME280;7755;52.208;6.964;2023-01-28T07:19:40;102631.03;;;1.67;85.97
15308;BME280;7755;52.208;6.964;2023-01-28T07:23:42;102627.59;;;1.55;85.63
15308;BME280;7755;52.208;6.964;2023-01-28T07:27:51;102636.31;;;1.48;85.39
15308;BME280;7755;52.208;6.964;2023-01-28T07:31:54;102638.13;;;1.47;85.57
15308;BME280;7755;52.208;6.964;2023-01-28T07:35:57;102630.94;;;1.48;85.38
15308;BME280;7755;52.208;6.964;2023-01-28T07:40:00;102636.09;;;1.60;85.88
15308;BME280;7755;52.208;6.964;2023-01-28T07:44:04;102651.38;;;1.70;85.92
15308;BME280;7755;52.208;6.964;2023-01-28T07:48:10;102671.41;;;1.75;86.00
15308;BME280;7755;52.208;6.964;2023-01-28T07:52:13;102659.31;;;1.81;85.99
15308;BME280;7755;52.208;6.964;2023-01-28T07:56:16;102670.03;;;1.81;85.72
15308;BME280;7755;52.208;6.964;2023-01-28T08:00:21;102689.53;;;1.83;85.19
15308;BME280;7755;52.208;6.964;2023-01-28T08:04:24;102682.06;;;1.86;85.26
15308;BME280;7755;52.208;6.964;2023-01-28T08:08:27;102692.94;;;1.85;85.41
15308;BME280;7755;52.208;6.964;2023-01-28T08:12:30;102699.72;;;1.89;85.60
15308;BME280;7755;52.208;6.964;2023-01-28T08:16:34;102710.19;;;1.92;84.83
15308;BME280;7755;52.208;6.964;2023-01-28T08:20:38;102714.72;;;1.91;84.81
15308;BME280;7755;52.208;6.964;2023-01-28T08:24:41;102706.66;;;1.91;84.85
15308;BME280;7755;52.208;6.964;2023-01-28T08:28:44;102708.75;;;1.88;84.64
15308;BME280;7755;52.208;6.964;2023-01-28T08:32:48;102710.34;;;1.90;84.72
15308;BME280;7755;52.208;6.964;2023-01-28T08:36:51;102711.44;;;1.88;84.75
15308;BME280;7755;52.208;6.964;2023-01-28T08:40:55;102703.38;;;1.88;85.12
15308;BME280;7755;52.208;6.964;2023-01-28T08:44:59;102707.66;;;1.90;85.27
15308;BME280;7755;52.208;6.964;2023-01-28T08:49:03;102717.84;;;1.97;84.75
15308;BME280;7755;52.208;6.964;2023-01-28T08:53:09;102727.16;;;2.02;84.92
15308;BME280;7755;52.208;6.964;2023-01-28T08:57:12;102726.06;;;2.05;84.58
15308;BME280;7755;52.208;6.964;2023-01-28T09:01:15;102725.78;;;2.08;84.47
15308;BME280;7755;52.208;6.964;2023-01-28T09:05:20;102739.06;;;2.09;84.53
15308;BME280;7755;52.208;6.964;2023-01-28T09:09:23;102720.72;;;2.14;85.03
15308;BME280;7755;52.208;6.964;2023-01-28T09:13:26;102715.22;;;2.16;85.11
15308;BME280;7755;52.208;6.964;2023-01-28T09:17:30;102713.50;;;2.15;83.94
15308;BME280;7755;52.208;6.964;2023-01-28T09:21:34;102724.25;;;2.15;84.17
15308;BME280;7755;52.208;6.964;2023-01-28T09:25:40;102727.78;;;2.15;83.77
15308;BME280;7755;52.208;6.964;2023-01-28T09:29:43;102746.44;;;2.17;83.78
15308;BME280;7755;52.208;6.964;2023-01-28T09:33:46;102746.44;;;2.17;83.40
15308;BME280;7755;52.208;6.964;2023-01-28T09:37:57;102762.97;;;2.22;83.95
15308;BME280;7755;52.208;6.964;2023-01-28T09:42:15;102765.09;;;2.18;83.70
15308;BME280;7755;52.208;6.964;2023-01-28T09:46:29;102772.53;;;2.15;83.78
15308;BME280;7755;52.208;6.964;2023-01-28T09:50:35;102765.66;;;2.22;83.86
15308;BME280;7755;52.208;6.964;2023-01-28T09:54:42;102760.44;;;2.21;83.83
15308;BME280;7755;52.208;6.964;2023-01-28T09:58:46;102771.47;;;2.27;83.54
15308;BME280;7755;52.208;6.964;2023-01-28T10:03:21;102788.44;;;2.28;82.65
15308;BME280;7755;52.208;6.964;2023-01-28T10:07:33;102775.16;;;2.26;81.94
15308;BME280;7755;52.208;6.964;2023-01-28T10:11:49;102781.38;;;2.36;82.48
15308;BME280;7755;52.208;6.964;2023-01-28T10:16:05;102785.44;;;2.52;82.06
15308;BME280;7755;52.208;6.964;2023-01-28T10:20:18;102756.03;;;2.60;80.13
15308;BME280;7755;52.208;6.964;2023-01-28T10:24:29;102767.63;;;2.70;80.88
15308;BME280;7755;52.208;6.964;2023-01-28T10:28:34;102762.31;;;2.80;80.55
15308;BME280;7755;52.208;6.964;2023-01-28T10:32:43;102762.91;;;2.93;80.62
15308;BME280;7755;52.208;6.964;2023-01-28T10:36:49;102763.59;;;2.95;79.29
15308;BME280;7755;52.208;6.964;2023-01-28T10:40:57;102767.16;;;3.05;79.29
15308;BME280;7755;52.208;6.964;2023-01-28T10:45:07;102754.69;;;3.04;78.73
15308;BME280;7755;52.208;6.964;2023-01-28T10:49:13;102745.78;;;2.94;79.23
15308;BME280;7755;52.208;6.964;2023-01-28T10:53:17;102730.34;;;2.96;79.96
15308;BME280;7755;52.208;6.964;2023-01-28T10:57:19;102729.25;;;2.98;79.91
15308;BME280;7755;52.208;6.964;2023-01-28T11:01:25;102717.78;;;2.96;79.49
15308;BME280;7755;52.208;6.964;2023-01-28T11:05:49;102722.59;;;2.93;79.02
15308;BME280;7755;52.208;6.964;2023-01-28T11:09:53;102712.84;;;2.92;79.56
15308;BME280;7755;52.208;6.964;2023-01-28T11:13:55;102705.75;;;3.00;79.74
15308;BME280;7755;52.208;6.964;2023-01-28T11:18:02;102700.81;;;3.15;80.09
15308;BME280;7755;52.208;6.964;2023-01-28T11:22:22;102699.50;;;3.29;79.96
15308;BME280;7755;52.208;6.964;2023-01-28T11:26:28;102684.34;;;3.38;80.03
15308;BME280;7755;52.208;6.964;2023-01-28T11:30:35;102670.06;;;3.47;80.43
15308;BME280;7755;52.208;6.964;2023-01-28T11:34:48;102643.59;;;3.42;78.75
15308;BME280;7755;52.208;6.964;2023-01-28T11:38:53;102617.97;;;3.48;79.22
15308;BME280;7755;52.208;6.964;2023-01-28T11:42:56;102619.09;;;3.45;79.59
15308;BME280;7755;52.208;6.964;2023-01-28T11:47:11;102606.38;;;3.38;79.12
15308;BME280;7755;52.208;6.964;2023-01-28T11:51:25;102605.69;;;3.36;80.03
15308;BME280;7755;52.208;6.964;2023-01-28T11:55:40;102618.72;;;3.31;79.18
15308;BME280;7755;52.208;6.964;2023-01-28T11:59:56;102614.34;;;3.29;79.41
15308;BME280;7755;52.208;6.964;2023-01-28T12:04:15;102604.28;;;3.32;79.63
15308;BME280;7755;52.208;6.964;2023-01-28T12:08:23;102630.72;;;3.36;79.61
15308;BME280;7755;52.208;6.964;2023-01-28T12:12:43;102612.59;;;3.38;78.95
15308;BME280;7755;52.208;6.964;2023-01-28T12:16:59;102627.25;;;3.26;78.96
15308;BME280;7755;52.208;6.964;2023-01-28T12:21:05;102647.06;;;3.15;78.88
15308;BME280;7755;52.208;6.964;2023-01-28T12:25:20;102643.50;;;3.24;79.92
15308;BME280;7755;52.208;6.964;2023-01-28T12:29:32;102645.75;;;3.39;80.20
15308;BME280;7755;52.208;6.964;2023-01-28T12:33:54;102630.72;;;3.36;79.61
15308;BME280;7755;52.208;6.964;2023-01-28T12:38:08;102631.56;;;3.46;80.20
15308;BME280;7755;52.208;6.964;2023-01-28T12:42:24;102629.78;;;3.65;79.86
15308;BME280;7755;52.208;6.964;2023-01-28T12:46:36;102633.56;;;3.72;79.00
15308;BME280;7755;52.208;6.964;2023-01-28T12:50:43;102630.16;;;3.79;78.77
15308;BME280;7755;52.208;6.964;2023-01-28T12:54:54;102629.28;;;3.89;78.15
15308;BME280;7755;52.208;6.964;2023-01-28T12:59:02;102640.81;;;3.99;77.94
15308;BME280;7755;52.208;6.964;2023-01-28T13:03:10;102628.59;;;4.04;77.58
15308;BME280;7755;52.208;6.964;2023-01-28T13:07:21;102623.69;;;4.00;77.26
15308;BME280;7755;52.208;6.964;2023-01-28T13:11:32;102626.38;;;4.00;76.78
15308;BME280;7755;52.208;6.964;2023-01-28T13:15:39;102620.09;;;4.09;76.48
15308;BME280;7755;52.208;6.964;2023-01-28T13:19:43;102601.28;;;3.99;76.73
15308;BME280;7755;52.208;6.964;2023-01-28T13:23:48;102590.00;;;3.96;76.29
15308;BME280;7755;52.208;6.964;2023-01-28T13:27:56;102575.13;;;3.92;76.95
15308;BME280;7755;52.208;6.964;2023-01-28T13:32:23;102567.81;;;3.84;76.36
15308;BME280;7755;52.208;6.964;2023-01-28T13:36:27;102561.50;;;3.75;77.44
15308;BME280;7755;52.208;6.964;2023-01-28T13:40:31;102557.28;;;3.73;78.29
15308;BME280;7755;52.208;6.964;2023-01-28T13:44:36;102551.00;;;3.82;78.25
15308;BME280;7755;52.208;6.964;2023-01-28T13:48:44;102552.59;;;3.75;77.97
15308;BME280;7755;52.208;6.964;2023-01-28T13:52:54;102559.84;;;3.65;77.77
15308;BME280;7755;52.208;6.964;2023-01-28T13:57:15;102555.06;;;3.59;77.95
15308;BME280;7755;52.208;6.964;2023-01-28T14:01:44;102566.97;;;3.56;78.40
15308;BME280;7755;52.208;6.964;2023-01-28T14:06:12;102578.59;;;3.56;78.28
15308;BME280;7755;52.208;6.964;2023-01-28T14:10:32;102580.84;;;3.61;79.35
15308;BME280;7755;52.208;6.964;2023-01-28T14:14:46;102588.59;;;3.64;79.60
15308;BME280;7755;52.208;6.964;2023-01-28T14:18:56;102593.53;;;3.69;78.57
15308;BME280;7755;52.208;6.964;2023-01-28T14:23:04;102609.94;;;3.75;78.74
15308;BME280;7755;52.208;6.964;2023-01-28T14:27:12;102600.44;;;3.81;78.55
15308;BME280;7755;52.208;6.964;2023-01-28T14:31:25;102600.66;;;3.88;78.63
15308;BME280;7755;52.208;6.964;2023-01-28T14:35:30;102607.44;;;3.92;78.29
15308;BME280;7755;52.208;6.964;2023-01-28T14:39:41;102607.00;;;3.96;78.17
15308;BME280;7755;52.208;6.964;2023-01-28T14:43:45;102599.91;;;3.95;77.92
15308;BME280;7755;52.208;6.964;2023-01-28T14:48:00;102592.13;;;3.92;79.19
15308;BME280;7755;52.208;6.964;2023-01-28T14:52:22;102588.91;;;3.89;79.05
15308;BME280;7755;52.208;6.964;2023-01-28T14:56:42;102599.81;;;3.87;78.50
15308;BME280;7755;52.208;6.964;2023-01-28T15:00:52;102604.66;;;3.83;79.16
15308;BME280;7755;52.208;6.964;2023-01-28T15:05:07;102605.81;;;3.81;78.98
15308;BME280;7755;52.208;6.964;2023-01-28T15:09:12;102611.47;;;3.78;79.07
15308;BME280;7755;52.208;6.964;2023-01-28T15:13:23;102603.72;;;3.75;78.99
15308;BME280;7755;52.208;6.964;2023-01-28T15:17:27;102609.84;;;3.67;79.35
15308;BME280;7755;52.208;6.964;2023-01-28T15:21:29;102621.72;;;3.65;79.72
15308;BME280;7755;52.208;6.964;2023-01-28T15:25:33;102633.06;;;3.59;80.70
15308;BME280;7755;52.208;6.964;2023-01-28T15:29:38;102655.56;;;3.58;81.02
15308;BME280;7755;52.208;6.964;2023-01-28T15:33:40;102650.19;;;3.58;80.63
15308;BME280;7755;52.208;6.964;2023-01-28T15:37:43;102641.84;;;3.61;81.49
15308;BME280;7755;52.208;6.964;2023-01-28T15:41:48;102646.38;;;3.60;81.23
15308;BME280;7755;52.208;6.964;2023-01-28T15:45:55;102635.22;;;3.55;81.72
15308;BME280;7755;52.208;6.964;2023-01-28T15:50:00;102627.41;;;3.52;81.47
15308;BME280;7755;52.208;6.964;2023-01-28T15:54:07;102644.44;;;3.52;81.82
15308;BME280;7755;52.208;6.964;2023-01-28T15:58:19;102645.97;;;3.45;82.09
15308;BME280;7755;52.208;6.964;2023-01-28T16:02:24;102638.38;;;3.41;81.90
15308;BME280;7755;52.208;6.964;2023-01-28T16:06:33;102646.28;;;3.42;82.14
15308;BME280;7755;52.208;6.964;2023-01-28T16:10:36;102639.06;;;3.43;82.76
15308;BME280;7755;52.208;6.964;2023-01-28T16:14:43;102642.19;;;3.38;83.37
15308;BME280;7755;52.208;6.964;2023-01-28T16:18:52;102652.97;;;3.28;83.88
15308;BME280;7755;52.208;6.964;2023-01-28T16:22:59;102670.38;;;3.24;83.99
15308;BME280;7755;52.208;6.964;2023-01-28T16:27:04;102662.59;;;3.21;84.33
15308;BME280;7755;52.208;6.964;2023-01-28T16:31:10;102662.06;;;3.08;84.31
15308;BME280;7755;52.208;6.964;2023-01-28T16:35:16;102653.56;;;3.03;84.66
15308;BME280;7755;52.208;6.964;2023-01-28T16:39:20;102634.63;;;2.95;85.23
15308;BME280;7755;52.208;6.964;2023-01-28T16:43:23;102634.66;;;2.85;85.50
15308;BME280;7755;52.208;6.964;2023-01-28T16:47:26;102637.47;;;2.74;85.59
15308;BME280;7755;52.208;6.964;2023-01-28T16:51:31;102620.50;;;2.64;86.28
15308;BME280;7755;52.208;6.964;2023-01-28T16:55:33;102612.16;;;2.57;86.92
15308;BME280;7755;52.208;6.964;2023-01-28T16:59:36;102597.91;;;2.47;87.73
15308;BME280;7755;52.208;6.964;2023-01-28T17:03:40;102605.66;;;2.40;87.77
15308;BME280;7755;52.208;6.964;2023-01-28T17:07:46;102628.94;;;2.30;88.09
15308;BME280;7755;52.208;6.964;2023-01-28T17:11:49;102639.53;;;2.22;88.72
15308;BME280;7755;52.208;6.964;2023-01-28T17:15:53;102646.44;;;2.15;89.08
15308;BME280;7755;52.208;6.964;2023-01-28T17:19:56;102660.00;;;2.13;89.49
15308;BME280;7755;52.208;6.964;2023-01-28T17:24:01;102651.34;;;2.10;89.77
15308;BME280;7755;52.208;6.964;2023-01-28T17:28:05;102646.69;;;2.02;90.14
15308;BME280;7755;52.208;6.964;2023-01-28T17:32:16;102650.34;;;2.01;90.51
15308;BME280;7755;52.208;6.964;2023-01-28T17:36:19;102635.41;;;1.99;90.70
15308;BME280;7755;52.208;6.964;2023-01-28T17:40:24;102646.25;;;1.97;90.88
15308;BME280;7755;52.208;6.964;2023-01-28T17:44:27;102664.31;;;1.95;91.21
15308;BME280;7755;52.208;6.964;2023-01-28T17:48:30;102663.31;;;1.96;91.29
15308;BME280;7755;52.208;6.964;2023-01-28T17:52:33;102664.44;;;1.94;91.22
15308;BME280;7755;52.208;6.964;2023-01-28T17:56:38;102669.38;;;1.88;91.75
15308;BME280;7755;52.208;6.964;2023-01-28T18:00:40;102666.56;;;1.90;92.17
15308;BME280;7755;52.208;6.964;2023-01-28T18:04:43;102681.09;;;1.87;91.99
15308;BME280;7755;52.208;6.964;2023-01-28T18:08:46;102683.75;;;1.87;92.56
15308;BME280;7755;52.208;6.964;2023-01-28T18:12:51;102682.78;;;1.88;92.65
15308;BME280;7755;52.208;6.964;2023-01-28T18:16:54;102689.59;;;1.92;92.78
15308;BME280;7755;52.208;6.964;2023-01-28T18:20:57;102695.94;;;1.91;93.08
15308;BME280;7755;52.208;6.964;2023-01-28T18:25:00;102696.78;;;1.92;93.56
15308;BME280;7755;52.208;6.964;2023-01-28T18:29:05;102698.03;;;1.88;93.33
15308;BME280;7755;52.208;6.964;2023-01-28T18:33:09;102724.28;;;1.84;92.74
15308;BME280;7755;52.208;6.964;2023-01-28T18:37:12;102707.75;;;1.89;92.83
15308;BME280;7755;52.208;6.964;2023-01-28T18:41:15;102718.38;;;1.90;93.19
15308;BME280;7755;52.208;6.964;2023-01-28T18:45:19;102706.53;;;1.93;92.96
15308;BME280;7755;52.208;6.964;2023-01-28T18:49:23;102705.53;;;1.94;93.40
15308;BME280;7755;52.208;6.964;2023-01-28T18:53:29;102707.13;;;1.97;93.03
15308;BME280;7755;52.208;6.964;2023-01-28T18:57:32;102705.00;;;2.00;93.12
15308;BME280;7755;52.208;6.964;2023-01-28T19:01:37;102705.69;;;2.02;92.66
15308;BME280;7755;52.208;6.964;2023-01-28T19:05:40;102702.44;;;1.99;92.99
15308;BME280;7755;52.208;6.964;2023-01-28T19:09:44;102705.97;;;1.99;93.59
15308;BME280;7755;52.208;6.964;2023-01-28T19:13:46;102712.91;;;2.02;93.39
15308;BME280;7755;52.208;6.964;2023-01-28T19:17:52;102712.19;;;2.00;93.05
15308;BME280;7755;52.208;6.964;2023-01-28T19:21:55;102724.91;;;1.98;93.48
15308;BME280;7755;52.208;6.964;2023-01-28T19:26:01;102724.16;;;1.96;93.90
15308;BME280;7755;52.208;6.964;2023-01-28T19:30:05;102717.25;;;1.93;94.46
15308;BME280;7755;52.208;6.964;2023-01-28T19:34:10;102710.91;;;1.94;94.24
15308;BME280;7755;52.208;6.964;2023-01-28T19:38:13;102720.63;;;1.95;94.38
15308;BME280;7755;52.208;6.964;2023-01-28T19:42:16;102699.06;;;1.97;94.36
15308;BME280;7755;52.208;6.964;2023-01-28T19:46:19;102693.69;;;1.97;94.55
15308;BME280;7755;52.208;6.964;2023-01-28T19:50:24;102691.97;;;1.96;94.49
15308;BME280;7755;52.208;6.964;2023-01-28T19:54:27;102683.81;;;1.97;94.33
15308;BME280;7755;52.208;6.964;2023-01-28T19:58:32;102679.69;;;1.93;94.59
15308;BME280;7755;52.208;6.964;2023-01-28T20:02:37;102677.69;;;1.85;94.93
15308;BME280;7755;52.208;6.964;2023-01-28T20:06:41;102680.06;;;1.79;95.66
15308;BME280;7755;52.208;6.964;2023-01-28T20:10:44;102688.97;;;1.79;95.88
15308;BME280;7755;52.208;6.964;2023-01-28T20:14:47;102675.16;;;1.84;95.84
15308;BME280;7755;52.208;6.964;2023-01-28T20:18:51;102689.13;;;1.87;95.81
15308;BME280;7755;52.208;6.964;2023-01-28T20:22:56;102680.94;;;1.89;95.91
15308;BME280;7755;52.208;6.964;2023-01-28T20:27:00;102679.84;;;1.91;96.19
15308;BME280;7755;52.208;6.964;2023-01-28T20:31:04;102683.81;;;1.97;95.92
15308;BME280;7755;52.208;6.964;2023-01-28T20:35:08;102672.81;;;2.00;95.78
15308;BME280;7755;52.208;6.964;2023-01-28T20:39:13;102672.34;;;1.95;96.00
15308;BME280;7755;52.208;6.964;2023-01-28T20:43:16;102669.97;;;1.92;95.50
15308;BME280;7755;52.208;6.964;2023-01-28T20:47:19;102656.69;;;1.90;96.09
15308;BME280;7755;52.208;6.964;2023-01-28T20:51:24;102653.03;;;1.91;95.84
15308;BME280;7755;52.208;6.964;2023-01-28T20:55:30;102654.72;;;1.92;96.27
15308;BME280;7755;52.208;6.964;2023-01-28T20:59:33;102650.91;;;1.95;95.77
15308;BME280;7755;52.208;6.964;2023-01-28T21:03:36;102659.78;;;1.96;95.74
15308;BME280;7755;52.208;6.964;2023-01-28T21:07:39;102654.16;;;1.99;95.06
15308;BME280;7755;52.208;6.964;2023-01-28T21:11:43;102660.53;;;1.98;95.03
15308;BME280;7755;52.208;6.964;2023-01-28T21:15:51;102650.91;;;1.95;95.06
15308;BME280;7755;52.208;6.964;2023-01-28T21:19:54;102655.28;;;1.96;95.44
15308;BME280;7755;52.208;6.964;2023-01-28T21:23:58;102659.25;;;2.02;95.42
15308;BME280;7755;52.208;6.964;2023-01-28T21:28:03;102659.13;;;2.03;95.03
15308;BME280;7755;52.208;6.964;2023-01-28T21:32:06;102664.91;;;1.99;94.80
15308;BME280;7755;52.208;6.964;2023-01-28T21:36:12;102669.28;;;2.00;94.89
15308;BME280;7755;52.208;6.964;2023-01-28T21:40:15;102673.78;;;1.99;95.04
15308;BME280;7755;52.208;6.964;2023-01-28T21:44:20;102670.28;;;2.08;94.82
15308;BME280;7755;52.208;6.964;2023-01-28T21:48:24;102665.75;;;2.09;94.91
15308;BME280;7755;52.208;6.964;2023-01-28T21:52:27;102653.94;;;2.11;94.50
15308;BME280;7755;52.208;6.964;2023-01-28T21:56:30;102655.03;;;2.09;94.53
15308;BME280;7755;52.208;6.964;2023-01-28T22:00:36;102669.44;;;2.08;94.43
15308;BME280;7755;52.208;6.964;2023-01-28T22:04:43;102658.25;;;2.03;94.49